sensor_id;sensor_type;location;lat;lon;timestamp;pressure;altitude;pressure_sealevel;temperature;humidity
2397;BME280;1209;48.410;9.054;2022-10-31T00:02:02;96718.16;;;11.53;100.00
2397;BME280;1209;48.410;9.054;2022-10-31T00:04:28;96721.06;;;11.58;100.00
2397;BME280;1209;48.410;9.054;2022-10-31T00:06:53;96723.06;;;11.56;100.00
2397;BME280;1209;48.410;9.054;2022-10-31T00:09:18;96720.41;;;11.64;100.00
2397;BME280;1209;48.410;9.054;2022-10-31T00:11:51;96720.34;;;11.72;100.00
2397;BME280;1209;48.410;9.054;2022-10-31T00:14:16;96720.53;;;11.71;100.00
2397;BME280;1209;48.410;9.054;2022-10-31T00:16:42;96724.97;;;11.62;100.00
2397;BME280;1209;48.410;9.054;2022-10-31T00:19:07;96725.66;;;11.56;100.00
2397;BME280;1209;48.410;9.054;2022-10-31T00:21:34;96719.78;;;11.54;100.00
2397;BME280;1209;48.410;9.054;2022-10-31T00:23:59;96724.22;;;11.45;100.00
2397;BME280;1209;48.410;9.054;2022-10-31T00:26:29;96728.69;;;11.37;100.00
2397;BME280;1209;48.410;9.054;2022-10-31T00:28:55;96730.31;;;11.38;100.00
2397;BME280;1209;48.410;9.054;2022-10-31T00:31:20;96727.69;;;11.38;100.00
2397;BME280;1209;48.410;9.054;2022-10-31T00:33:45;96724.09;;;11.30;100.00
2397;BME280;1209;48.410;9.054;2022-10-31T00:36:17;96718.59;;;11.09;100.00
2397;BME280;1209;48.410;9.054;2022-10-31T00:38:44;96720.56;;;11.07;100.00
2397;BME280;1209;48.410;9.054;2022-10-31T00:41:11;96727.06;;;11.19;100.00
2397;BME280;1209;48.410;9.054;2022-10-31T00:43:36;96723.84;;;11.01;100.00
2397;BME280;1209;48.410;9.054;2022-10-31T00:46:02;96725.25;;;11.20;100.00
2397;BME280;1209;48.410;9.054;2022-10-31T00:48:28;96720.72;;;11.14;100.00
2397;BME280;1209;48.410;9.054;2022-10-31T00:50:53;96724.63;;;11.18;100.00
2397;BME280;1209;48.410;9.054;2022-10-31T00:53:19;96715.31;;;11.15;100.00
2397;BME280;1209;48.410;9.054;2022-10-31T00:55:44;96716.47;;;11.13;100.00
2397;BME280;1209;48.410;9.054;2022-10-31T00:58:09;96711.03;;;11.22;100.00
2397;BME280;1209;48.410;9.054;2022-10-31T01:00:35;96713.63;;;11.30;100.00
2397;BME280;1209;48.410;9.054;2022-10-31T01:03:00;96714.28;;;11.32;100.00
2397;BME280;1209;48.410;9.054;2022-10-31T01:05:26;96709.25;;;11.23;100.00
2397;BME280;1209;48.410;9.054;2022-10-31T01:07:51;96714.31;;;11.24;100.00
2397;BME280;1209;48.410;9.054;2022-10-31T01:10:17;96719.22;;;11.19;100.00
2397;BME280;1209;48.410;9.054;2022-10-31T01:12:44;96714.84;;;11.03;100.00
2397;BME280;1209;48.410;9.054;2022-10-31T01:15:12;96713.69;;;11.06;100.00
2397;BME280;1209;48.410;9.054;2022-10-31T01:17:38;96708.81;;;11.03;100.00
2397;BME280;1209;48.410;9.054;2022-10-31T01:20:04;96703.72;;;11.10;100.00
2397;BME280;1209;48.410;9.054;2022-10-31T01:22:30;96704.53;;;11.10;100.00
2397;BME280;1209;48.410;9.054;2022-10-31T01:24:55;96704.88;;;11.07;100.00
2397;BME280;1209;48.410;9.054;2022-10-31T01:27:21;96709.63;;;11.03;100.00
2397;BME280;1209;48.410;9.054;2022-10-31T01:29:46;96706.38;;;10.85;100.00
2397;BME280;1209;48.410;9.054;2022-10-31T01:32:11;96704.25;;;10.89;100.00
2397;BME280;1209;48.410;9.054;2022-10-31T01:34:36;96708.19;;;10.68;100.00
2397;BME280;1209;48.410;9.054;2022-10-31T01:37:02;96703.28;;;10.73;100.00
2397;BME280;1209;48.410;9.054;2022-10-31T01:39:27;96712.72;;;10.83;100.00
2397;BME280;1209;48.410;9.054;2022-10-31T01:41:53;96706.38;;;10.77;100.00
2397;BME280;1209;48.410;9.054;2022-10-31T01:46:56;96713.72;;;10.82;100.00
2397;BME280;1209;48.410;9.054;2022-10-31T01:52:07;96704.25;;;10.72;100.00
2397;BME280;1209;48.410;9.054;2022-10-31T01:54:39;96709.00;;;10.77;100.00
2397;BME280;1209;48.410;9.054;2022-10-31T01:57:08;96706.06;;;10.72;100.00
2397;BME280;1209;48.410;9.054;2022-10-31T01:59:40;96702.81;;;10.62;100.00
2397;BME280;1209;48.410;9.054;2022-10-31T02:02:07;96704.94;;;10.58;100.00
2397;BME280;1209;48.410;9.054;2022-10-31T02:04:33;96702.78;;;10.70;100.00
2397;BME280;1209;48.410;9.054;2022-10-31T02:07:06;96702.94;;;10.77;100.00
2397;BME280;1209;48.410;9.054;2022-10-31T02:09:33;96699.34;;;10.78;100.00
2397;BME280;1209;48.410;9.054;2022-10-31T02:11:59;96702.63;;;10.71;100.00
2397;BME280;1209;48.410;9.054;2022-10-31T02:14:27;96699.53;;;10.68;100.00
2397;BME280;1209;48.410;9.054;2022-10-31T02:16:54;96700.69;;;10.49;100.00
2397;BME280;1209;48.410;9.054;2022-10-31T02:28:04;96693.34;;;10.61;100.00
2397;BME280;1209;48.410;9.054;2022-10-31T02:30:41;96695.78;;;10.46;100.00
2397;BME280;1209;48.410;9.054;2022-10-31T02:33:25;96691.38;;;10.47;100.00
2397;BME280;1209;48.410;9.054;2022-10-31T02:38:46;96690.88;;;10.51;100.00
2397;BME280;1209;48.410;9.054;2022-10-31T02:41:24;96688.94;;;10.53;100.00
2397;BME280;1209;48.410;9.054;2022-10-31T02:44:09;96685.84;;;10.50;100.00
2397;BME280;1209;48.410;9.054;2022-10-31T02:47:00;96682.56;;;10.48;100.00
2397;BME280;1209;48.410;9.054;2022-10-31T02:52:50;96684.84;;;10.43;100.00
2397;BME280;1209;48.410;9.054;2022-10-31T02:57:48;96675.22;;;10.43;100.00
2397;BME280;1209;48.410;9.054;2022-10-31T03:00:14;96679.47;;;10.44;100.00
2397;BME280;1209;48.410;9.054;2022-10-31T03:02:50;96689.88;;;10.36;100.00
2397;BME280;1209;48.410;9.054;2022-10-31T03:05:37;96680.88;;;10.14;100.00
2397;BME280;1209;48.410;9.054;2022-10-31T03:08:21;96672.38;;;9.96;100.00
2397;BME280;1209;48.410;9.054;2022-10-31T03:11:05;96677.13;;;10.08;100.00
2397;BME280;1209;48.410;9.054;2022-10-31T03:13:51;96677.78;;;10.19;100.00
2397;BME280;1209;48.410;9.054;2022-10-31T03:16:47;96673.91;;;10.23;100.00
2397;BME280;1209;48.410;9.054;2022-10-31T03:19:26;96681.06;;;10.21;100.00
2397;BME280;1209;48.410;9.054;2022-10-31T03:22:15;96676.47;;;10.15;100.00
2397;BME280;1209;48.410;9.054;2022-10-31T03:24:41;96677.94;;;10.01;100.00
2397;BME280;1209;48.410;9.054;2022-10-31T03:27:11;96676.78;;;10.12;100.00
2397;BME280;1209;48.410;9.054;2022-10-31T03:29:40;96680.03;;;9.97;100.00
2397;BME280;1209;48.410;9.054;2022-10-31T03:32:18;96677.72;;;9.86;100.00
2397;BME280;1209;48.410;9.054;2022-10-31T03:34:45;96672.97;;;9.90;100.00
2397;BME280;1209;48.410;9.054;2022-10-31T03:37:14;96679.56;;;10.02;100.00
2397;BME280;1209;48.410;9.054;2022-10-31T03:39:43;96673.84;;;10.06;100.00
2397;BME280;1209;48.410;9.054;2022-10-31T03:42:31;96678.59;;;10.03;100.00
2397;BME280;1209;48.410;9.054;2022-10-31T03:45:08;96678.09;;;9.99;100.00
2397;BME280;1209;48.410;9.054;2022-10-31T03:47:37;96672.34;;;9.88;100.00
2397;BME280;1209;48.410;9.054;2022-10-31T03:50:04;96672.78;;;9.75;100.00
2397;BME280;1209;48.410;9.054;2022-10-31T03:52:46;96677.84;;;9.68;100.00
2397;BME280;1209;48.410;9.054;2022-10-31T03:55:18;96680.63;;;9.75;100.00
2397;BME280;1209;48.410;9.054;2022-10-31T03:58:03;96678.31;;;9.64;100.00
2397;BME280;1209;48.410;9.054;2022-10-31T04:00:31;96673.09;;;9.64;100.00
2397;BME280;1209;48.410;9.054;2022-10-31T04:03:04;96670.50;;;9.72;100.00
2397;BME280;1209;48.410;9.054;2022-10-31T04:05:32;96675.38;;;9.67;100.00
2397;BME280;1209;48.410;9.054;2022-10-31T04:08:00;96671.97;;;9.74;100.00
2397;BME280;1209;48.410;9.054;2022-10-31T04:10:28;96671.19;;;9.82;100.00
2397;BME280;1209;48.410;9.054;2022-10-31T04:13:00;96675.25;;;9.76;100.00
2397;BME280;1209;48.410;9.054;2022-10-31T04:15:27;96675.53;;;9.65;100.00
2397;BME280;1209;48.410;9.054;2022-10-31T04:17:55;96674.38;;;9.60;100.00
2397;BME280;1209;48.410;9.054;2022-10-31T04:20:31;96666.25;;;9.63;100.00
2397;BME280;1209;48.410;9.054;2022-10-31T04:22:56;96662.69;;;9.72;100.00
2397;BME280;1209;48.410;9.054;2022-10-31T04:25:21;96661.72;;;9.73;100.00
2397;BME280;1209;48.410;9.054;2022-10-31T04:27:47;96661.53;;;9.74;100.00
2397;BME280;1209;48.410;9.054;2022-10-31T04:30:12;96662.88;;;9.78;100.00
2397;BME280;1209;48.410;9.054;2022-10-31T04:32:37;96661.72;;;9.73;100.00
2397;BME280;1209;48.410;9.054;2022-10-31T04:35:03;96661.06;;;9.79;100.00
2397;BME280;1209;48.410;9.054;2022-10-31T04:37:28;96663.81;;;9.69;100.00
2397;BME280;1209;48.410;9.054;2022-10-31T04:39:53;96663.19;;;9.75;100.00
2397;BME280;1209;48.410;9.054;2022-10-31T04:42:19;96656.16;;;9.76;100.00
2397;BME280;1209;48.410;9.054;2022-10-31T04:44:44;96661.34;;;9.60;100.00
2397;BME280;1209;48.410;9.054;2022-10-31T04:47:09;96656.31;;;9.66;100.00
2397;BME280;1209;48.410;9.054;2022-10-31T04:49:34;96655.19;;;9.69;100.00
2397;BME280;1209;48.410;9.054;2022-10-31T04:52:00;96650.44;;;9.64;100.00
2397;BME280;1209;48.410;9.054;2022-10-31T04:54:25;96655.09;;;9.44;100.00
2397;BME280;1209;48.410;9.054;2022-10-31T04:56:50;96650.25;;;9.50;100.00
2397;BME280;1209;48.410;9.054;2022-10-31T04:59:15;96652.53;;;9.53;100.00
2397;BME280;1209;48.410;9.054;2022-10-31T05:01:41;96651.66;;;9.44;100.00
2397;BME280;1209;48.410;9.054;2022-10-31T05:04:06;96650.09;;;9.59;100.00
2397;BME280;1209;48.410;9.054;2022-10-31T05:06:31;96647.84;;;9.64;100.00
2397;BME280;1209;48.410;9.054;2022-10-31T05:08:57;96645.63;;;9.43;100.00
2397;BME280;1209;48.410;9.054;2022-10-31T05:11:22;96640.25;;;9.45;100.00
2397;BME280;1209;48.410;9.054;2022-10-31T05:13:47;96643.69;;;9.45;100.00
2397;BME280;1209;48.410;9.054;2022-10-31T05:16:12;96633.81;;;9.57;100.00
2397;BME280;1209;48.410;9.054;2022-10-31T05:18:38;96632.66;;;9.52;100.00
2397;BME280;1209;48.410;9.054;2022-10-31T05:21:03;96632.19;;;9.56;100.00
2397;BME280;1209;48.410;9.054;2022-10-31T05:23:28;96632.00;;;9.58;100.00
2397;BME280;1209;48.410;9.054;2022-10-31T05:25:54;96627.22;;;9.45;100.00
2397;BME280;1209;48.410;9.054;2022-10-31T05:28:19;96628.03;;;9.37;100.00
2397;BME280;1209;48.410;9.054;2022-10-31T05:30:44;96629.16;;;9.35;100.00
2397;BME280;1209;48.410;9.054;2022-10-31T05:33:10;96628.50;;;9.33;100.00
2397;BME280;1209;48.410;9.054;2022-10-31T05:35:35;96621.28;;;9.19;100.00
2397;BME280;1209;48.410;9.054;2022-10-31T05:38:00;96622.88;;;9.11;100.00
2397;BME280;1209;48.410;9.054;2022-10-31T05:40:26;96615.56;;;9.15;100.00
2397;BME280;1209;48.410;9.054;2022-10-31T05:42:53;96612.16;;;9.14;100.00
2397;BME280;1209;48.410;9.054;2022-10-31T05:45:20;96617.38;;;9.23;100.00
2397;BME280;1209;48.410;9.054;2022-10-31T05:48:04;96620.34;;;9.28;100.00
2397;BME280;1209;48.410;9.054;2022-10-31T05:50:31;96621.81;;;9.30;100.00
2397;BME280;1209;48.410;9.054;2022-10-31T05:52:59;96622.78;;;9.29;100.00
2397;BME280;1209;48.410;9.054;2022-10-31T05:55:25;96625.56;;;9.28;100.00
2397;BME280;1209;48.410;9.054;2022-10-31T05:57:51;96621.28;;;9.19;100.00
2397;BME280;1209;48.410;9.054;2022-10-31T06:00:18;96631.66;;;9.02;100.00
2397;BME280;1209;48.410;9.054;2022-10-31T06:02:44;96633.13;;;9.05;100.00
2397;BME280;1209;48.410;9.054;2022-10-31T06:05:09;96626.00;;;9.15;100.00
2397;BME280;1209;48.410;9.054;2022-10-31T06:07:34;96615.22;;;9.10;100.00
2397;BME280;1209;48.410;9.054;2022-10-31T06:10:02;96631.13;;;8.99;100.00
2397;BME280;1209;48.410;9.054;2022-10-31T06:12:27;96624.25;;;8.98;100.00
2397;BME280;1209;48.410;9.054;2022-10-31T06:14:53;96632.56;;;8.93;100.00
2397;BME280;1209;48.410;9.054;2022-10-31T06:17:18;96631.03;;;8.82;100.00
2397;BME280;1209;48.410;9.054;2022-10-31T06:19:43;96626.88;;;8.98;100.00
2397;BME280;1209;48.410;9.054;2022-10-31T06:22:09;96630.16;;;9.00;100.00
2397;BME280;1209;48.410;9.054;2022-10-31T06:24:36;96632.19;;;9.14;100.00
2397;BME280;1209;48.410;9.054;2022-10-31T06:27:02;96625.34;;;9.13;100.00
2397;BME280;1209;48.410;9.054;2022-10-31T06:29:27;96625.50;;;9.11;100.00
2397;BME280;1209;48.410;9.054;2022-10-31T06:31:52;96621.44;;;9.17;100.00
2397;BME280;1209;48.410;9.054;2022-10-31T06:34:18;96632.22;;;9.22;100.00
2397;BME280;1209;48.410;9.054;2022-10-31T06:36:43;96629.13;;;9.27;100.00
2397;BME280;1209;48.410;9.054;2022-10-31T06:39:10;96627.97;;;9.21;100.00
2397;BME280;1209;48.410;9.054;2022-10-31T06:41:35;96632.47;;;9.03;100.00
2397;BME280;1209;48.410;9.054;2022-10-31T06:44:01;96630.91;;;9.18;100.00
2397;BME280;1209;48.410;9.054;2022-10-31T06:46:27;96626.38;;;9.28;100.00
2397;BME280;1209;48.410;9.054;2022-10-31T06:48:52;96621.97;;;9.29;100.00
2397;BME280;1209;48.410;9.054;2022-10-31T06:51:17;96623.41;;;9.23;100.00
2397;BME280;1209;48.410;9.054;2022-10-31T06:53:42;96615.28;;;9.26;100.00
2397;BME280;1209;48.410;9.054;2022-10-31T06:56:08;96609.25;;;9.26;100.00
2397;BME280;1209;48.410;9.054;2022-10-31T06:58:33;96608.16;;;9.36;100.00
2397;BME280;1209;48.410;9.054;2022-10-31T07:00:59;96614.84;;;9.39;100.00
2397;BME280;1209;48.410;9.054;2022-10-31T07:03:25;96616.16;;;9.43;100.00
2397;BME280;1209;48.410;9.054;2022-10-31T07:05:50;96620.09;;;9.47;100.00
2397;BME280;1209;48.410;9.054;2022-10-31T07:08:16;96619.13;;;9.56;100.00
2397;BME280;1209;48.410;9.054;2022-10-31T07:10:42;96624.38;;;9.64;100.00
2397;BME280;1209;48.410;9.054;2022-10-31T07:13:13;96625.03;;;9.66;100.00
2397;BME280;1209;48.410;9.054;2022-10-31T07:15:40;96618.19;;;9.73;100.00
2397;BME280;1209;48.410;9.054;2022-10-31T07:18:07;96616.22;;;9.75;100.00
2397;BME280;1209;48.410;9.054;2022-10-31T07:20:33;96610.69;;;9.87;100.00
2397;BME280;1209;48.410;9.054;2022-10-31T07:22:59;96614.66;;;9.99;100.00
2397;BME280;1209;48.410;9.054;2022-10-31T07:25:25;96609.94;;;10.02;100.00
2397;BME280;1209;48.410;9.054;2022-10-31T07:27:51;96617.09;;;10.00;100.00
2397;BME280;1209;48.410;9.054;2022-10-31T07:30:17;96620.38;;;10.02;100.00
2397;BME280;1209;48.410;9.054;2022-10-31T07:32:45;96616.63;;;10.05;100.00
2397;BME280;1209;48.410;9.054;2022-10-31T07:35:16;96626.22;;;10.04;100.00
2397;BME280;1209;48.410;9.054;2022-10-31T07:37:42;96620.53;;;10.09;100.00
2397;BME280;1209;48.410;9.054;2022-10-31T07:40:08;96624.28;;;10.06;100.00
2397;BME280;1209;48.410;9.054;2022-10-31T07:42:41;96621.69;;;10.23;100.00
2397;BME280;1209;48.410;9.054;2022-10-31T07:45:12;96623.16;;;10.33;100.00
2397;BME280;1209;48.410;9.054;2022-10-31T07:47:41;96625.94;;;10.48;100.00
2397;BME280;1209;48.410;9.054;2022-10-31T07:50:08;96622.97;;;10.59;100.00
2397;BME280;1209;48.410;9.054;2022-10-31T07:52:34;96629.00;;;10.68;100.00
2397;BME280;1209;48.410;9.054;2022-10-31T07:54:59;96624.75;;;10.75;100.00
2397;BME280;1209;48.410;9.054;2022-10-31T07:57:25;96623.09;;;10.90;100.00
2397;BME280;1209;48.410;9.054;2022-10-31T07:59:50;96623.38;;;11.03;100.00
2397;BME280;1209;48.410;9.054;2022-10-31T08:02:15;96622.03;;;11.16;100.00
2397;BME280;1209;48.410;9.054;2022-10-31T08:04:40;96624.09;;;11.28;100.00
2397;BME280;1209;48.410;9.054;2022-10-31T08:07:06;96621.78;;;11.33;100.00
2397;BME280;1209;48.410;9.054;2022-10-31T08:09:31;96623.06;;;11.46;100.00
2397;BME280;1209;48.410;9.054;2022-10-31T08:11:56;96618.56;;;11.62;100.00
2397;BME280;1209;48.410;9.054;2022-10-31T08:14:22;96621.41;;;11.84;100.00
2397;BME280;1209;48.410;9.054;2022-10-31T08:16:47;96625.53;;;12.01;100.00
2397;BME280;1209;48.410;9.054;2022-10-31T08:19:13;96622.63;;;12.19;100.00
2397;BME280;1209;48.410;9.054;2022-10-31T08:21:38;96621.28;;;12.23;100.00
2397;BME280;1209;48.410;9.054;2022-10-31T08:24:03;96621.34;;;12.38;100.00
2397;BME280;1209;48.410;9.054;2022-10-31T08:26:29;96612.53;;;12.53;100.00
2397;BME280;1209;48.410;9.054;2022-10-31T08:28:54;96616.06;;;12.60;100.00
2397;BME280;1209;48.410;9.054;2022-10-31T08:31:21;96610.00;;;12.75;100.00
2397;BME280;1209;48.410;9.054;2022-10-31T08:33:46;96612.31;;;12.78;100.00
2397;BME280;1209;48.410;9.054;2022-10-31T08:36:11;96619.72;;;12.89;100.00
2397;BME280;1209;48.410;9.054;2022-10-31T08:38:37;96613.03;;;13.01;100.00
2397;BME280;1209;48.410;9.054;2022-10-31T08:41:02;96618.94;;;13.18;100.00
2397;BME280;1209;48.410;9.054;2022-10-31T08:43:27;96616.56;;;13.23;100.00
2397;BME280;1209;48.410;9.054;2022-10-31T08:45:52;96616.38;;;13.39;100.00
2397;BME280;1209;48.410;9.054;2022-10-31T08:48:20;96609.28;;;13.54;100.00
2397;BME280;1209;48.410;9.054;2022-10-31T08:50:46;96609.00;;;13.64;100.00
2397;BME280;1209;48.410;9.054;2022-10-31T08:53:13;96618.41;;;13.73;100.00
2397;BME280;1209;48.410;9.054;2022-10-31T08:55:40;96622.44;;;13.91;100.00
2397;BME280;1209;48.410;9.054;2022-10-31T08:58:09;96612.06;;;14.04;100.00
2397;BME280;1209;48.410;9.054;2022-10-31T09:00:35;96614.72;;;14.10;100.00
2397;BME280;1209;48.410;9.054;2022-10-31T09:03:12;96613.06;;;14.24;100.00
2397;BME280;1209;48.410;9.054;2022-10-31T09:05:38;96603.56;;;14.23;100.00
2397;BME280;1209;48.410;9.054;2022-10-31T09:08:05;96603.81;;;14.28;100.00
2397;BME280;1209;48.410;9.054;2022-10-31T09:10:32;96601.94;;;14.43;100.00
2397;BME280;1209;48.410;9.054;2022-10-31T09:12:59;96602.41;;;14.54;100.00
2397;BME280;1209;48.410;9.054;2022-10-31T09:15:26;96602.25;;;14.62;100.00
2397;BME280;1209;48.410;9.054;2022-10-31T09:17:52;96602.97;;;14.70;100.00
2397;BME280;1209;48.410;9.054;2022-10-31T09:20:18;96601.41;;;14.83;100.00
2397;BME280;1209;48.410;9.054;2022-10-31T09:22:43;96596.00;;;14.91;100.00
2397;BME280;1209;48.410;9.054;2022-10-31T09:25:09;96590.59;;;14.99;100.00
2397;BME280;1209;48.410;9.054;2022-10-31T09:27:34;96592.09;;;15.15;100.00
2397;BME280;1209;48.410;9.054;2022-10-31T09:29:59;96588.16;;;15.38;100.00
2397;BME280;1209;48.410;9.054;2022-10-31T09:32:25;96588.00;;;15.53;100.00
2397;BME280;1209;48.410;9.054;2022-10-31T09:34:50;96582.97;;;15.58;100.00
2397;BME280;1209;48.410;9.054;2022-10-31T09:37:15;96580.00;;;15.74;100.00
2397;BME280;1209;48.410;9.054;2022-10-31T09:39:40;96579.22;;;15.81;100.00
2397;BME280;1209;48.410;9.054;2022-10-31T09:48:27;96578.84;;;16.03;100.00
2397;BME280;1209;48.410;9.054;2022-10-31T09:51:00;96585.97;;;16.16;100.00
2397;BME280;1209;48.410;9.054;2022-10-31T09:54:00;96584.75;;;16.32;100.00
2397;BME280;1209;48.410;9.054;2022-10-31T09:56:28;96590.22;;;16.44;100.00
2397;BME280;1209;48.410;9.054;2022-10-31T09:58:58;96580.09;;;16.41;100.00
2397;BME280;1209;48.410;9.054;2022-10-31T10:07:03;96578.06;;;16.43;100.00
2397;BME280;1209;48.410;9.054;2022-10-31T10:09:31;96583.13;;;16.44;100.00
2397;BME280;1209;48.410;9.054;2022-10-31T10:12:12;96578.06;;;16.43;100.00
2397;BME280;1209;48.410;9.054;2022-10-31T10:18:04;96576.25;;;16.56;100.00
2397;BME280;1209;48.410;9.054;2022-10-31T10:20:52;96573.22;;;16.66;100.00
2397;BME280;1209;48.410;9.054;2022-10-31T10:23:46;96563.88;;;16.70;100.00
2397;BME280;1209;48.410;9.054;2022-10-31T10:26:19;96564.25;;;16.93;100.00
2397;BME280;1209;48.410;9.054;2022-10-31T10:28:48;96557.94;;;17.08;100.00
2397;BME280;1209;48.410;9.054;2022-10-31T10:31:16;96558.66;;;17.28;100.00
2397;BME280;1209;48.410;9.054;2022-10-31T10:33:58;96555.34;;;17.39;100.00
2397;BME280;1209;48.410;9.054;2022-10-31T10:36:31;96547.22;;;17.41;100.00
2397;BME280;1209;48.410;9.054;2022-10-31T10:39:11;96543.31;;;17.50;100.00
2397;BME280;1209;48.410;9.054;2022-10-31T10:41:42;96539.00;;;17.62;100.00
2397;BME280;1209;48.410;9.054;2022-10-31T10:44:10;96542.16;;;17.84;100.00
2397;BME280;1209;48.410;9.054;2022-10-31T10:46:45;96535.59;;;17.93;100.00
2397;BME280;1209;48.410;9.054;2022-10-31T10:49:41;96535.19;;;17.58;100.00
2397;BME280;1209;48.410;9.054;2022-10-31T10:52:49;96526.22;;;17.59;100.00
2397;BME280;1209;48.410;9.054;2022-10-31T10:55:39;96523.75;;;17.71;100.00
2397;BME280;1209;48.410;9.054;2022-10-31T10:58:09;96518.75;;;17.87;100.00
2397;BME280;1209;48.410;9.054;2022-10-31T11:00:38;96522.75;;;17.97;100.00
2397;BME280;1209;48.410;9.054;2022-10-31T11:03:04;96515.44;;;17.99;100.00
2397;BME280;1209;48.410;9.054;2022-10-31T11:08:00;96517.81;;;18.07;100.00
2397;BME280;1209;48.410;9.054;2022-10-31T11:10:26;96517.59;;;18.08;100.00
2397;BME280;1209;48.410;9.054;2022-10-31T11:13:04;96511.34;;;18.03;100.00
2397;BME280;1209;48.410;9.054;2022-10-31T11:15:32;96504.59;;;18.07;100.00
2397;BME280;1209;48.410;9.054;2022-10-31T11:18:00;96498.06;;;18.09;100.00
2397;BME280;1209;48.410;9.054;2022-10-31T11:20:36;96495.38;;;18.16;100.00
2397;BME280;1209;48.410;9.054;2022-10-31T11:23:22;96489.88;;;18.17;100.00
2397;BME280;1209;48.410;9.054;2022-10-31T11:26:15;96492.69;;;18.22;100.00
2397;BME280;1209;48.410;9.054;2022-10-31T11:28:43;96477.03;;;18.21;100.00
2397;BME280;1209;48.410;9.054;2022-10-31T11:31:12;96479.41;;;18.29;100.00
2397;BME280;1209;48.410;9.054;2022-10-31T11:38:41;96476.53;;;18.31;100.00
2397;BME280;1209;48.410;9.054;2022-10-31T11:41:13;96474.69;;;18.31;100.00
2397;BME280;1209;48.410;9.054;2022-10-31T11:43:46;96472.84;;;18.32;100.00
2397;BME280;1209;48.410;9.054;2022-10-31T11:46:21;96469.63;;;18.30;100.00
2397;BME280;1209;48.410;9.054;2022-10-31T11:48:51;96476.47;;;18.37;100.00
2397;BME280;1209;48.410;9.054;2022-10-31T11:51:23;96468.59;;;18.31;100.00
2397;BME280;1209;48.410;9.054;2022-10-31T11:53:54;96466.09;;;18.36;100.00
2397;BME280;1209;48.410;9.054;2022-10-31T11:56:20;96463.47;;;18.36;100.00
2397;BME280;1209;48.410;9.054;2022-10-31T11:59:02;96465.28;;;18.35;100.00
2397;BME280;1209;48.410;9.054;2022-10-31T12:01:29;96462.44;;;18.37;100.00
2397;BME280;1209;48.410;9.054;2022-10-31T12:04:09;96454.78;;;18.29;100.00
2397;BME280;1209;48.410;9.054;2022-10-31T12:06:37;96455.59;;;18.29;100.00
2397;BME280;1209;48.410;9.054;2022-10-31T12:09:18;96455.16;;;18.32;100.00
2397;BME280;1209;48.410;9.054;2022-10-31T12:22:41;96437.59;;;18.19;100.00
2397;BME280;1209;48.410;9.054;2022-10-31T12:25:21;96427.31;;;18.11;100.00
2397;BME280;1209;48.410;9.054;2022-10-31T12:28:03;96428.91;;;18.12;100.00
2397;BME280;1209;48.410;9.054;2022-10-31T12:30:59;96410.63;;;18.11;100.00
2397;BME280;1209;48.410;9.054;2022-10-31T12:33:37;96408.13;;;17.98;100.00
2397;BME280;1209;48.410;9.054;2022-10-31T12:41:37;96412.19;;;18.18;100.00
2397;BME280;1209;48.410;9.054;2022-10-31T12:44:13;96404.69;;;18.15;100.00
2397;BME280;1209;48.410;9.054;2022-10-31T12:47:01;96403.88;;;18.15;100.00
2397;BME280;1209;48.410;9.054;2022-10-31T12:52:39;96392.13;;;18.29;100.00
2397;BME280;1209;48.410;9.054;2022-10-31T12:58:00;96387.13;;;18.39;100.00
2397;BME280;1209;48.410;9.054;2022-10-31T13:00:27;96386.88;;;18.47;100.00
2397;BME280;1209;48.410;9.054;2022-10-31T13:05:43;96380.19;;;18.63;100.00
2397;BME280;1209;48.410;9.054;2022-10-31T13:08:23;96376.81;;;18.74;100.00
2397;BME280;1209;48.410;9.054;2022-10-31T13:11:02;96377.47;;;18.70;100.00
2397;BME280;1209;48.410;9.054;2022-10-31T13:13:35;96383.34;;;18.72;100.00
2397;BME280;1209;48.410;9.054;2022-10-31T13:16:11;96383.47;;;18.77;100.00
2397;BME280;1209;48.410;9.054;2022-10-31T13:18:44;96375.63;;;18.70;100.00
2397;BME280;1209;48.410;9.054;2022-10-31T13:21:17;96370.94;;;18.72;100.00
2397;BME280;1209;48.410;9.054;2022-10-31T13:23:44;96353.00;;;18.74;100.00
2397;BME280;1209;48.410;9.054;2022-10-31T13:26:15;96345.59;;;18.65;100.00
2397;BME280;1209;48.410;9.054;2022-10-31T13:28:47;96342.19;;;18.58;100.00
2397;BME280;1209;48.410;9.054;2022-10-31T13:31:14;96335.50;;;18.55;100.00
2397;BME280;1209;48.410;9.054;2022-10-31T13:33:44;96329.16;;;18.74;100.00
2397;BME280;1209;48.410;9.054;2022-10-31T13:36:32;96336.06;;;18.94;100.00
2397;BME280;1209;48.410;9.054;2022-10-31T13:39:06;96331.91;;;18.98;100.00
2397;BME280;1209;48.410;9.054;2022-10-31T13:44:24;96321.00;;;19.06;100.00
2397;BME280;1209;48.410;9.054;2022-10-31T13:46:50;96322.16;;;18.80;100.00
2397;BME280;1209;48.410;9.054;2022-10-31T13:54:54;96314.44;;;19.08;100.00
2397;BME280;1209;48.410;9.054;2022-10-31T13:57:37;96316.16;;;19.03;100.00
2397;BME280;1209;48.410;9.054;2022-10-31T14:00:24;96315.31;;;18.91;100.00
2397;BME280;1209;48.410;9.054;2022-10-31T14:02:51;96314.06;;;18.93;100.00
2397;BME280;1209;48.410;9.054;2022-10-31T14:05:44;96301.09;;;19.03;100.00
2397;BME280;1209;48.410;9.054;2022-10-31T14:08:20;96309.47;;;19.00;100.00
2397;BME280;1209;48.410;9.054;2022-10-31T14:10:52;96303.03;;;18.96;100.00
2397;BME280;1209;48.410;9.054;2022-10-31T14:13:29;96300.97;;;18.98;100.00
2397;BME280;1209;48.410;9.054;2022-10-31T14:15:59;96300.91;;;18.86;100.00
2397;BME280;1209;48.410;9.054;2022-10-31T14:20:56;96294.53;;;18.76;100.00
2397;BME280;1209;48.410;9.054;2022-10-31T14:29:01;96296.16;;;18.77;100.00
2397;BME280;1209;48.410;9.054;2022-10-31T14:31:41;96296.75;;;18.79;100.00
2397;BME280;1209;48.410;9.054;2022-10-31T14:34:32;96300.06;;;18.74;100.00
2397;BME280;1209;48.410;9.054;2022-10-31T14:52:12;96292.97;;;18.38;100.00
2397;BME280;1209;48.410;9.054;2022-10-31T14:54:42;96290.03;;;18.46;100.00
2397;BME280;1209;48.410;9.054;2022-10-31T14:57:24;96280.56;;;18.39;100.00
2397;BME280;1209;48.410;9.054;2022-10-31T14:59:55;96282.78;;;18.23;100.00
2397;BME280;1209;48.410;9.054;2022-10-31T15:02:26;96270.69;;;18.16;100.00
2397;BME280;1209;48.410;9.054;2022-10-31T15:04:54;96273.25;;;18.04;100.00
2397;BME280;1209;48.410;9.054;2022-10-31T15:07:23;96269.22;;;18.02;100.00
2397;BME280;1209;48.410;9.054;2022-10-31T15:09:57;96269.88;;;17.97;100.00
2397;BME280;1209;48.410;9.054;2022-10-31T15:12:23;96270.69;;;17.98;100.00